createdAt,value
2024-04-25T00:00:53.926Z,-6.52
2024-04-25T00:03:21.175Z,-6.51
2024-04-25T00:05:48.442Z,-6.27
2024-04-25T00:08:15.696Z,-6.14
2024-04-25T00:10:42.956Z,-6.07
2024-04-25T00:13:10.161Z,-5.99
2024-04-25T00:15:37.443Z,-6.15
2024-04-25T00:18:04.847Z,-6.08
2024-04-25T00:20:32.460Z,-5.96
2024-04-25T00:22:59.716Z,-5.98
2024-04-25T00:25:26.920Z,-6.29
2024-04-25T00:27:55.318Z,-6.04
2024-04-25T00:30:22.527Z,-5.92
2024-04-25T00:32:53.436Z,-5.86
2024-04-25T00:35:21.015Z,-5.85
2024-04-25T00:37:48.270Z,-6.15
2024-04-25T00:40:15.501Z,-5.94
2024-04-25T00:42:42.746Z,-5.94
2024-04-25T00:45:10.771Z,-5.88
2024-04-25T00:47:39.047Z,-5.80
2024-04-25T00:50:06.639Z,-5.84
2024-04-25T00:52:34.000Z,-5.70
2024-04-25T00:55:05.536Z,-5.96
2024-04-25T00:57:36.125Z,-5.95
2024-04-25T01:00:03.826Z,-5.68
2024-04-25T01:02:32.691Z,-5.93
2024-04-25T01:05:02.101Z,-5.81
2024-04-25T01:07:29.552Z,-5.88
2024-04-25T01:09:57.546Z,-5.82
2024-04-25T01:12:32.641Z,-5.80
2024-04-25T01:14:59.917Z,-5.75
2024-04-25T01:17:30.574Z,-5.76
2024-04-25T01:19:58.419Z,-5.80
2024-04-25T01:22:34.368Z,-5.70
2024-04-25T01:25:03.689Z,-5.69
2024-04-25T01:27:31.171Z,-5.88
2024-04-25T01:29:59.796Z,-5.75
2024-04-25T01:32:27.695Z,-5.76
2024-04-25T01:34:55.288Z,-5.66
2024-04-25T01:37:22.506Z,-5.90
2024-04-25T01:39:50.369Z,-5.91
2024-04-25T01:42:17.571Z,-5.97
2024-04-25T01:44:44.789Z,-6.08
2024-04-25T01:47:12.072Z,-6.07
2024-04-25T01:49:39.296Z,-6.15
2024-04-25T01:52:06.563Z,-5.98
2024-04-25T01:54:33.768Z,-6.09
2024-04-25T01:57:01.080Z,-6.09
2024-04-25T01:59:28.418Z,-6.18
2024-04-25T02:01:56.425Z,-6.02
2024-04-25T02:04:23.816Z,-6.00
2024-04-25T02:06:51.122Z,-5.95
2024-04-25T02:09:18.686Z,-6.24
2024-04-25T02:11:45.918Z,-5.99
2024-04-25T02:14:13.144Z,-5.94
2024-04-25T02:16:40.336Z,-5.96
2024-04-25T02:19:07.562Z,-5.76
2024-04-25T02:21:53.659Z,-5.79
2024-04-25T02:24:39.151Z,-5.80
2024-04-25T02:27:06.355Z,-5.78
2024-04-25T02:29:33.871Z,-5.76
2024-04-25T02:32:01.135Z,-5.82
2024-04-25T02:34:28.888Z,-5.78
2024-04-25T02:36:56.080Z,-5.74
2024-04-25T02:39:23.862Z,-5.80
2024-04-25T02:41:51.141Z,-5.83
2024-04-25T02:44:18.995Z,-5.88
2024-04-25T02:46:46.210Z,-5.93
2024-04-25T02:49:13.468Z,-6.13
2024-04-25T02:51:41.952Z,-5.95
2024-04-25T02:54:09.827Z,-6.21
2024-04-25T02:56:37.074Z,-5.83
2024-04-25T02:59:04.782Z,-5.82
2024-04-25T03:01:32.926Z,-5.86
2024-04-25T03:04:00.159Z,-5.77
2024-04-25T03:06:27.368Z,-5.67
2024-04-25T03:08:54.526Z,-5.75
2024-04-25T03:11:21.883Z,-5.69
2024-04-25T03:13:49.118Z,-5.57
2024-04-25T03:16:16.391Z,-5.57
2024-04-25T03:18:44.032Z,-5.41
2024-04-25T03:21:11.853Z,-5.61
2024-04-25T03:23:42.697Z,-5.67
2024-04-25T03:26:10.042Z,-5.53
2024-04-25T03:28:38.390Z,-5.45
2024-04-25T03:31:05.538Z,-5.39
2024-04-25T03:33:32.955Z,-5.56
2024-04-25T03:36:00.230Z,-5.45
2024-04-25T03:38:27.692Z,-5.59
2024-04-25T03:40:54.914Z,-5.66
2024-04-25T03:43:22.114Z,-5.60
2024-04-25T03:45:49.516Z,-5.69
2024-04-25T03:48:17.033Z,-5.71
2024-04-25T03:50:44.550Z,-5.64
2024-04-25T03:53:14.270Z,-5.80
2024-04-25T03:55:42.744Z,-6.04
2024-04-25T03:58:09.980Z,-5.84
2024-04-25T04:00:37.171Z,-5.80
2024-04-25T04:03:04.602Z,-5.72
2024-04-25T04:05:32.111Z,-5.69
2024-04-25T04:07:59.900Z,-5.83
2024-04-25T04:10:27.229Z,-5.88
2024-04-25T04:12:54.411Z,-5.79
2024-04-25T04:15:21.753Z,-5.70
2024-04-25T04:17:49.087Z,-5.72
2024-04-25T04:20:16.437Z,-5.79
2024-04-25T04:22:43.670Z,-5.76
2024-04-25T04:25:11.216Z,-5.61
2024-04-25T04:27:38.382Z,-5.92
2024-04-25T04:30:06.364Z,-5.68
2024-04-25T04:32:33.785Z,-5.90
2024-04-25T04:35:01.139Z,-5.53
2024-04-25T04:37:28.594Z,-5.57
2024-04-25T04:39:55.779Z,-5.58
2024-04-25T04:42:22.941Z,-5.65
2024-04-25T04:44:50.579Z,-5.60
2024-04-25T04:47:18.964Z,-5.62
2024-04-25T04:49:46.226Z,-5.67
2024-04-25T04:52:13.404Z,-5.64
2024-04-25T04:54:40.608Z,-5.57
2024-04-25T04:57:08.368Z,-5.52
2024-04-25T04:59:35.540Z,-5.41
2024-04-25T05:02:03.752Z,-5.40
2024-04-25T05:04:31.729Z,-5.44
2024-04-25T05:06:58.932Z,-5.82
2024-04-25T05:09:26.059Z,-5.37
2024-04-25T05:11:53.297Z,-5.37
2024-04-25T05:14:20.516Z,-5.47
2024-04-25T05:16:47.937Z,-5.73
2024-04-25T05:19:15.123Z,-5.77
2024-04-25T05:21:44.597Z,-5.73
2024-04-25T05:24:12.136Z,-5.68
2024-04-25T05:26:39.362Z,-5.63
2024-04-25T05:29:08.158Z,-5.79
2024-04-25T05:31:35.385Z,-5.97
2024-04-25T05:34:02.621Z,-5.70
2024-04-25T05:36:29.829Z,-5.78
2024-04-25T05:38:57.569Z,-5.69
2024-04-25T05:41:24.808Z,-5.65
2024-04-25T05:43:52.511Z,-5.63
2024-04-25T05:46:22.004Z,-5.57
2024-04-25T05:48:49.244Z,-5.70
2024-04-25T05:51:16.412Z,-5.73
2024-04-25T05:53:43.812Z,-5.76
2024-04-25T05:56:11.085Z,-5.78
2024-04-25T05:58:38.280Z,-5.74
2024-04-25T06:01:05.547Z,-5.73
2024-04-25T06:03:32.987Z,-5.70
2024-04-25T06:06:02.353Z,-5.72
2024-04-25T06:08:29.536Z,-5.58
2024-04-25T06:10:56.771Z,-5.53
2024-04-25T06:13:24.062Z,-5.57
2024-04-25T06:15:51.291Z,-5.50
2024-04-25T06:18:19.267Z,-5.48
2024-04-25T06:20:46.634Z,-5.32
2024-04-25T06:23:14.226Z,-5.38
2024-04-25T06:25:42.378Z,-5.34
2024-04-25T06:28:09.989Z,-5.28
2024-04-25T06:30:37.159Z,-4.89
2024-04-25T06:33:04.825Z,-4.91
2024-04-25T06:35:32.223Z,-4.78
2024-04-25T06:37:59.423Z,-4.52
2024-04-25T06:40:27.024Z,-4.12
2024-04-25T06:42:54.223Z,-3.87
2024-04-25T06:45:22.129Z,-3.97
2024-04-25T06:47:49.387Z,-3.87
2024-04-25T06:50:16.642Z,-4.09
2024-04-25T06:52:44.326Z,-4.31
2024-04-25T06:55:11.505Z,-4.32
2024-04-25T06:57:38.690Z,-4.20
2024-04-25T07:00:06.723Z,-4.08
2024-04-25T07:02:34.095Z,-4.03
2024-04-25T07:05:01.345Z,-4.10
2024-04-25T07:07:29.352Z,-3.82
2024-04-25T07:09:56.595Z,-3.79
2024-04-25T07:12:23.770Z,-3.66
2024-04-25T07:14:51.003Z,-3.41
2024-04-25T07:17:18.396Z,-3.42
2024-04-25T07:19:45.688Z,-3.21
2024-04-25T07:22:12.941Z,-3.10
2024-04-25T07:24:40.108Z,-3.17
2024-04-25T07:27:07.300Z,-3.09
2024-04-25T07:29:36.278Z,-3.20
2024-04-25T07:32:04.782Z,-3.58
2024-04-25T07:34:32.036Z,-4.03
2024-04-25T07:36:59.327Z,-4.45
2024-04-25T07:39:27.274Z,-5.04
2024-04-25T07:41:54.463Z,-4.62
2024-04-25T07:44:22.434Z,-4.67
2024-04-25T07:46:49.985Z,-4.47
2024-04-25T07:49:18.372Z,-4.33
2024-04-25T07:51:46.385Z,-4.09
2024-04-25T07:54:13.793Z,-3.70
2024-04-25T07:56:41.053Z,-3.38
2024-04-25T07:59:08.265Z,-3.00
2024-04-25T08:01:35.498Z,-2.93
2024-04-25T08:04:02.845Z,-2.95
2024-04-25T08:06:30.053Z,-3.06
2024-04-25T08:08:57.232Z,-2.70
2024-04-25T08:11:24.472Z,-2.66
2024-04-25T08:13:51.786Z,-2.90
2024-04-25T08:16:19.493Z,-2.59
2024-04-25T08:18:49.230Z,-2.72
2024-04-25T08:21:16.435Z,-3.02
2024-04-25T08:23:43.684Z,-3.07
2024-04-25T08:28:38.333Z,-3.81
2024-04-25T08:31:05.538Z,-4.50
2024-04-25T08:33:33.474Z,-4.06
2024-04-25T08:36:00.754Z,-3.76
2024-04-25T08:38:31.185Z,-3.61
2024-04-25T08:40:58.478Z,-3.63
2024-04-25T08:43:26.264Z,-3.59
2024-04-25T08:45:53.631Z,-3.76
2024-04-25T08:48:21.916Z,-3.47
2024-04-25T08:50:50.010Z,-2.84
2024-04-25T08:53:19.578Z,-2.72
2024-04-25T08:55:49.947Z,-2.09
2024-04-25T08:58:17.215Z,-2.45
2024-04-25T09:00:44.718Z,-2.86
2024-04-25T09:03:15.308Z,-2.68
2024-04-25T09:05:43.506Z,-2.47
2024-04-25T09:08:14.413Z,-2.66
2024-04-25T09:10:43.410Z,-1.98
2024-04-25T09:13:10.977Z,-1.69
2024-04-25T09:15:38.473Z,-2.02
2024-04-25T09:18:05.917Z,-2.23
2024-04-25T09:20:33.673Z,-1.67
2024-04-25T09:23:04.564Z,-1.63
2024-04-25T09:25:33.923Z,-1.31
2024-04-25T09:28:03.734Z,-1.75
2024-04-25T09:30:33.755Z,-1.61
2024-04-25T09:33:05.106Z,-1.52
2024-04-25T09:35:40.544Z,-1.59
2024-04-25T09:38:07.805Z,-1.26
2024-04-25T09:40:34.980Z,-1.31
2024-04-25T09:43:02.359Z,-0.68
2024-04-25T09:45:31.545Z,-0.70
2024-04-25T09:48:05.863Z,-0.62
2024-04-25T09:50:41.627Z,-0.72
2024-04-25T09:53:16.821Z,-0.65
2024-04-25T09:55:46.918Z,-0.36
2024-04-25T09:58:39.946Z,-0.69
2024-04-25T10:01:07.144Z,-0.81
2024-04-25T10:03:34.617Z,-0.75
2024-04-25T10:06:02.129Z,-0.69
2024-04-25T10:08:29.627Z,-0.41
2024-04-25T10:10:59.862Z,-0.66
2024-04-25T10:13:29.270Z,-0.45
2024-04-25T10:15:59.183Z,-0.21
2024-04-25T10:18:28.050Z,0.31
2024-04-25T10:21:03.334Z,0.03
2024-04-25T10:23:36.885Z,0.04
2024-04-25T10:26:04.142Z,0.30
2024-04-25T10:28:32.358Z,1.05
2024-04-25T10:30:59.640Z,1.05
2024-04-25T10:33:27.151Z,1.37
2024-04-25T10:36:03.215Z,1.63
2024-04-25T10:38:30.436Z,1.33
2024-04-25T10:40:58.572Z,0.94
2024-04-25T10:43:25.754Z,0.69
2024-04-25T10:45:53.016Z,0.08
2024-04-25T10:48:20.588Z,-0.39
2024-04-25T10:50:48.095Z,-0.70
2024-04-25T10:53:15.562Z,-1.01
2024-04-25T10:55:43.220Z,-0.80
2024-04-25T10:58:14.758Z,-0.99
2024-04-25T11:00:45.213Z,-0.69
2024-04-25T11:03:13.299Z,-0.66
2024-04-25T11:05:42.139Z,-0.27
2024-04-25T11:08:09.875Z,-0.46
2024-04-25T11:10:37.350Z,-0.47
2024-04-25T11:13:05.442Z,-0.79
2024-04-25T11:15:32.786Z,-0.73
2024-04-25T11:18:09.718Z,-0.74
2024-04-25T11:20:41.559Z,-0.46
2024-04-25T11:23:21.064Z,0.18
2024-04-25T11:25:51.046Z,0.96
2024-04-25T11:28:20.268Z,1.43
2024-04-25T11:30:47.834Z,0.75
2024-04-25T11:33:21.848Z,0.80
2024-04-25T11:35:49.466Z,0.60
2024-04-25T11:38:19.881Z,0.00
2024-04-25T11:40:48.955Z,-0.33
2024-04-25T11:43:17.342Z,-0.69
2024-04-25T11:45:47.503Z,-1.20
2024-04-25T11:48:19.194Z,-1.04
2024-04-25T11:50:46.805Z,-0.76
2024-04-25T11:53:14.213Z,-0.84
2024-04-25T11:55:42.522Z,-1.13
2024-04-25T11:58:09.912Z,-0.53
2024-04-25T12:00:38.142Z,-0.60
2024-04-25T12:03:06.360Z,-0.86
2024-04-25T12:05:33.801Z,-0.81
2024-04-25T12:08:04.859Z,-0.70
2024-04-25T12:10:32.714Z,-0.68
2024-04-25T12:13:00.242Z,-0.22
2024-04-25T12:15:28.036Z,-0.13
2024-04-25T12:17:56.510Z,-0.11
2024-04-25T12:20:23.815Z,-0.42
2024-04-25T12:22:52.414Z,-1.25
2024-04-25T12:25:19.615Z,-1.83
2024-04-25T12:27:46.794Z,-2.20
2024-04-25T12:30:14.004Z,-2.31
2024-04-25T12:32:41.536Z,-2.26
2024-04-25T12:35:09.335Z,-2.15
2024-04-25T12:37:36.482Z,-1.83
2024-04-25T12:40:04.397Z,-1.76
2024-04-25T12:42:31.573Z,-1.80
2024-04-25T12:44:58.748Z,-1.33
2024-04-25T12:47:26.148Z,-1.27
2024-04-25T12:49:53.568Z,-1.07
2024-04-25T12:52:20.951Z,-1.04
2024-04-25T12:54:48.094Z,-0.67
2024-04-25T12:57:22.969Z,-0.35
2024-04-25T12:59:51.937Z,-0.15
2024-04-25T13:02:21.665Z,-0.03
2024-04-25T13:04:48.942Z,0.14
2024-04-25T13:07:16.437Z,0.14
2024-04-25T13:09:43.576Z,0.18
2024-04-25T13:12:10.750Z,0.23
2024-04-25T13:14:37.909Z,-0.13
2024-04-25T13:17:05.077Z,-0.65
2024-04-25T13:19:32.503Z,-0.71
2024-04-25T13:24:27.576Z,-0.82
2024-04-25T13:26:54.783Z,-1.07
2024-04-25T13:29:22.495Z,-1.21
2024-04-25T13:31:49.652Z,-1.41
2024-04-25T13:34:22.789Z,-1.64
2024-04-25T13:36:51.773Z,-1.72
2024-04-25T13:39:19.016Z,-1.83
2024-04-25T13:41:46.270Z,-1.84
2024-04-25T13:44:13.485Z,-1.80
2024-04-25T13:46:40.755Z,-1.75
2024-04-25T13:49:08.563Z,-1.97
2024-04-25T13:51:35.766Z,-1.75
2024-04-25T13:54:07.530Z,-1.48
2024-04-25T13:56:35.401Z,-1.55
2024-04-25T13:59:03.019Z,-1.71
2024-04-25T14:01:30.247Z,-1.63
2024-04-25T14:03:57.515Z,-1.41
2024-04-25T14:06:24.753Z,-1.56
2024-04-25T14:08:51.971Z,-1.35
2024-04-25T14:11:20.285Z,-1.29
2024-04-25T14:13:47.573Z,-1.00
2024-04-25T14:16:14.796Z,-0.69
2024-04-25T14:18:41.982Z,-0.35
2024-04-25T14:21:11.150Z,0.01
2024-04-25T14:23:41.330Z,0.31
2024-04-25T14:26:27.153Z,0.28
2024-04-25T14:28:55.718Z,0.57
2024-04-25T14:31:23.394Z,0.48
2024-04-25T14:33:50.807Z,0.30
2024-04-25T14:36:18.235Z,0.67
2024-04-25T14:38:45.626Z,0.58
2024-04-25T14:41:13.023Z,0.50
2024-04-25T14:43:42.907Z,0.45
2024-04-25T14:46:10.920Z,-0.35
2024-04-25T14:48:38.273Z,-0.40
2024-04-25T14:51:05.793Z,-0.43
2024-04-25T14:53:33.783Z,-0.50
2024-04-25T14:56:01.027Z,-0.45
2024-04-25T14:58:29.450Z,-0.40
2024-04-25T15:00:56.773Z,-0.56
2024-04-25T15:03:24.054Z,-0.81
2024-04-25T15:05:54.241Z,-0.57
2024-04-25T15:08:21.462Z,-1.10
2024-04-25T15:10:48.768Z,-0.60
2024-04-25T15:13:23.409Z,-0.45
2024-04-25T15:15:51.880Z,-0.46
2024-04-25T15:18:19.862Z,-0.31
2024-04-25T15:20:47.358Z,-0.44
2024-04-25T15:23:15.076Z,-0.34
2024-04-25T15:25:42.327Z,-0.29
2024-04-25T15:28:11.180Z,-0.04
2024-04-25T15:30:40.126Z,0.11
2024-04-25T15:33:07.480Z,0.54
2024-04-25T15:35:34.781Z,0.83
2024-04-25T15:38:02.166Z,1.60
2024-04-25T15:40:29.479Z,2.66
2024-04-25T15:42:56.657Z,2.60
2024-04-25T15:45:24.713Z,3.25
2024-04-25T15:47:52.067Z,3.65
2024-04-25T15:50:21.074Z,3.40
2024-04-25T15:52:48.334Z,3.43
2024-04-25T15:55:15.587Z,3.12
2024-04-25T15:57:43.912Z,4.05
2024-04-25T16:00:13.424Z,4.69
2024-04-25T16:02:40.918Z,5.56
2024-04-25T16:05:08.335Z,5.25
2024-04-25T16:07:37.721Z,4.58
2024-04-25T16:10:05.548Z,4.66
2024-04-25T16:12:32.873Z,5.29
2024-04-25T16:15:00.091Z,3.74
2024-04-25T16:17:27.458Z,2.46
2024-04-25T16:19:54.697Z,2.31
2024-04-25T16:22:21.872Z,2.01
2024-04-25T16:24:49.021Z,2.43
2024-04-25T16:27:16.234Z,3.29
2024-04-25T16:29:43.907Z,3.19
2024-04-25T16:32:11.096Z,3.84
2024-04-25T16:34:38.342Z,4.03
2024-04-25T16:37:05.778Z,4.01
2024-04-25T16:39:33.010Z,3.09
2024-04-25T16:42:00.305Z,2.73
2024-04-25T16:44:28.025Z,2.66
2024-04-25T16:46:55.360Z,2.21
2024-04-25T16:49:22.543Z,1.99
2024-04-25T16:51:49.867Z,2.12
2024-04-25T16:54:17.139Z,1.68
2024-04-25T16:56:44.339Z,1.38
2024-04-25T16:59:11.806Z,1.22
2024-04-25T17:01:39.271Z,0.78
2024-04-25T17:04:06.460Z,0.93
2024-04-25T17:06:33.922Z,0.92
2024-04-25T17:09:01.075Z,0.94
2024-04-25T17:11:29.598Z,1.09
2024-04-25T17:14:04.266Z,0.78
2024-04-25T17:16:31.466Z,0.27
2024-04-25T17:18:59.108Z,0.26
2024-04-25T17:21:26.308Z,0.10
2024-04-25T17:23:56.645Z,-0.20
2024-04-25T17:26:24.516Z,-0.25
2024-04-25T17:28:52.647Z,-0.69
2024-04-25T17:31:20.782Z,-0.45
2024-04-25T17:33:48.130Z,-0.49
2024-04-25T17:36:17.110Z,-0.72
2024-04-25T17:38:44.433Z,-0.73
2024-04-25T17:41:12.203Z,-1.03
2024-04-25T17:43:39.600Z,-0.67
2024-04-25T17:46:07.520Z,-0.62
2024-04-25T17:48:35.085Z,-0.54
2024-04-25T17:51:03.221Z,-0.85
2024-04-25T17:53:30.448Z,-0.72
2024-04-25T17:55:57.709Z,-0.58
2024-04-25T17:58:24.963Z,-1.11
2024-04-25T18:00:53.183Z,-0.87
2024-04-25T18:03:20.453Z,-1.19
2024-04-25T18:05:47.677Z,-1.27
2024-04-25T18:08:14.919Z,-1.18
2024-04-25T18:10:43.831Z,-1.17
2024-04-25T18:13:11.069Z,-1.09
2024-04-25T18:15:38.453Z,-1.05
2024-04-25T18:18:06.309Z,-1.14
2024-04-25T18:20:33.699Z,-1.47
2024-04-25T18:23:01.002Z,-1.43
2024-04-25T18:25:28.426Z,-1.53
2024-04-25T18:27:55.965Z,-1.70
2024-04-25T18:30:23.320Z,-2.12
2024-04-25T18:32:51.382Z,-2.03
2024-04-25T18:35:18.844Z,-2.45
2024-04-25T18:37:46.251Z,-2.23
2024-04-25T18:40:13.587Z,-2.27
2024-04-25T18:42:41.181Z,-2.52
2024-04-25T18:45:09.485Z,-2.51
2024-04-25T18:47:36.778Z,-2.53
2024-04-25T18:50:04.308Z,-2.66
2024-04-25T18:52:31.517Z,-2.69
2024-04-25T18:54:58.667Z,-2.76
2024-04-25T18:57:25.837Z,-2.76
2024-04-25T18:59:53.906Z,-2.72
2024-04-25T19:02:21.165Z,-2.74
2024-04-25T19:04:48.455Z,-2.94
2024-04-25T19:07:15.598Z,-2.76
2024-04-25T19:09:42.777Z,-2.84
2024-04-25T19:12:09.962Z,-2.77
2024-04-25T19:14:37.782Z,-2.73
2024-04-25T19:17:05.004Z,-2.80
2024-04-25T19:19:32.191Z,-2.87
2024-04-25T19:21:59.557Z,-2.62
2024-04-25T19:24:26.822Z,-2.76
2024-04-25T19:26:54.124Z,-2.66
2024-04-25T19:29:22.935Z,-2.59
2024-04-25T19:31:54.252Z,-2.55
2024-04-25T19:34:22.502Z,-2.61
2024-04-25T19:36:52.177Z,-2.71
2024-04-25T19:39:19.490Z,-2.64
2024-04-25T19:41:50.800Z,-2.72
2024-04-25T19:44:18.365Z,-2.81
2024-04-25T19:46:45.789Z,-2.67
2024-04-25T19:49:13.100Z,-2.64
2024-04-25T19:51:41.909Z,-2.66
2024-04-25T19:54:09.652Z,-2.79
2024-04-25T19:56:36.854Z,-2.78
2024-04-25T19:59:04.682Z,-2.73
2024-04-25T20:01:31.844Z,-3.04
2024-04-25T20:04:00.067Z,-2.76
2024-04-25T20:06:27.680Z,-2.98
2024-04-25T20:08:57.014Z,-2.87
2024-04-25T20:11:25.951Z,-2.71
2024-04-25T20:13:53.423Z,-2.93
2024-04-25T20:16:20.620Z,-2.88
2024-04-25T20:19:06.528Z,-2.81
2024-04-25T20:21:38.938Z,-3.13
2024-04-25T20:24:07.093Z,-3.01
2024-04-25T20:26:34.567Z,-3.00
2024-04-25T20:29:01.805Z,-2.95
2024-04-25T20:31:29.032Z,-3.05
2024-04-25T20:33:56.286Z,-3.07
2024-04-25T20:36:23.523Z,-3.44
2024-04-25T20:38:51.875Z,-3.16
2024-04-25T20:41:21.841Z,-3.04
2024-04-25T20:43:51.188Z,-3.16
2024-04-25T20:46:25.526Z,-3.29
2024-04-25T20:48:55.835Z,-3.29
2024-04-25T20:51:23.512Z,-2.98
2024-04-25T20:53:50.874Z,-2.99
2024-04-25T20:56:20.302Z,-2.96
2024-04-25T20:58:47.543Z,-2.86
2024-04-25T21:01:14.886Z,-2.94
2024-04-25T21:03:42.104Z,-3.25
2024-04-25T21:06:09.401Z,-3.20
2024-04-25T21:08:36.642Z,-3.03
2024-04-25T21:11:07.667Z,-3.11
2024-04-25T21:13:34.833Z,-2.99
2024-04-25T21:16:01.984Z,-2.92
2024-04-25T21:18:29.237Z,-3.09
2024-04-25T21:21:01.069Z,-3.18
2024-04-25T21:23:30.208Z,-2.94
2024-04-25T21:26:01.369Z,-3.18
2024-04-25T21:28:30.116Z,-2.98
2024-04-25T21:30:57.753Z,-2.85
2024-04-25T21:33:25.307Z,-2.97
2024-04-25T21:35:52.799Z,-2.92
2024-04-25T21:38:20.218Z,-3.04
2024-04-25T21:40:47.444Z,-2.99
2024-04-25T21:43:14.635Z,-3.01
2024-04-25T21:45:41.898Z,-3.20
2024-04-25T21:48:09.420Z,-2.99
2024-04-25T21:50:36.801Z,-3.01
2024-04-25T21:53:04.215Z,-2.99
2024-04-25T21:55:31.392Z,-3.06
2024-04-25T21:58:00.981Z,-3.01
2024-04-25T22:00:30.690Z,-3.06
2024-04-25T22:02:58.699Z,-3.00
2024-04-25T22:05:26.095Z,-3.04
2024-04-25T22:07:53.350Z,-3.21
2024-04-25T22:10:22.224Z,-3.44
2024-04-25T22:12:50.274Z,-3.73
2024-04-25T22:15:17.484Z,-3.46
2024-04-25T22:17:44.888Z,-3.50
2024-04-25T22:20:12.328Z,-3.55
2024-04-25T22:22:41.674Z,-3.55
2024-04-25T22:25:09.024Z,-3.51
2024-04-25T22:27:40.956Z,-3.66
2024-04-25T22:30:09.691Z,-3.61
2024-04-25T22:32:37.012Z,-3.60
2024-04-25T22:35:04.681Z,-3.63
2024-04-25T22:37:31.821Z,-3.91
2024-04-25T22:39:58.994Z,-3.69
2024-04-25T22:42:26.204Z,-3.78
2024-04-25T22:44:57.164Z,-3.86
2024-04-25T22:47:27.578Z,-3.96
2024-04-25T22:49:54.921Z,-3.99
2024-04-25T22:52:22.618Z,-4.15
2024-04-25T22:54:49.873Z,-4.07
2024-04-25T22:57:17.105Z,-4.16
2024-04-25T22:59:44.340Z,-4.17
2024-04-25T23:02:11.536Z,-4.28
2024-04-25T23:04:39.359Z,-4.22
2024-04-25T23:07:06.728Z,-4.12
2024-04-25T23:09:34.525Z,-4.33
2024-04-25T23:12:01.952Z,-4.05
2024-04-25T23:14:30.324Z,-3.96
2024-04-25T23:16:57.598Z,-4.16
2024-04-25T23:19:24.814Z,-3.89
2024-04-25T23:21:51.979Z,-3.94
2024-04-25T23:24:19.205Z,-3.94
2024-04-25T23:26:46.458Z,-3.98
2024-04-25T23:29:13.713Z,-4.08
2024-04-25T23:31:40.985Z,-3.90
2024-04-25T23:34:08.223Z,-3.85
2024-04-25T23:36:39.971Z,-3.88
2024-04-25T23:39:07.219Z,-3.89
2024-04-25T23:41:34.660Z,-3.81
2024-04-25T23:44:01.841Z,-3.87
2024-04-25T23:46:30.076Z,-3.87
2024-04-25T23:48:57.264Z,-3.81
2024-04-25T23:51:25.705Z,-3.86
2024-04-25T23:53:53.187Z,-3.83
2024-04-25T23:56:20.416Z,-3.72
2024-04-25T23:58:47.637Z,-3.65
